Time;durP1;ratioP1;P1;durP2;ratioP2;P2;SDS_P1;SDS_P2;PMS_P1;PMS_P2;Temp;Humidity;BMP_temperature;BMP_pressure;BME280_temperature;BME280_humidity;BME280_pressure;Samples;Min_cycle;Max_cycle;Signal;HPM_P1;HPM_P2
2023/07/04 00:01:09;;;;;;;18.00;7.50;;;16.70;99.90;;;;;;5082687;28;20031;-83
2023/07/04 00:03:36;;;;;;;19.00;7.47;;;16.60;99.90;;;;;;5084677;28;20082;-82
2023/07/04 00:06:05;;;;;;;21.25;7.53;;;16.60;99.90;;;;;;5078432;28;20030;-83
2023/07/04 00:08:33;;;;;;;15.63;7.28;;;16.60;99.90;;;;;;5082330;28;20035;-83
2023/07/04 00:11:01;;;;;;;19.10;6.95;;;16.50;99.90;;;;;;5087109;28;20485;-84
2023/07/04 00:13:27;;;;;;;17.80;6.47;;;16.50;99.90;;;;;;5081000;28;20047;-83
2023/07/04 00:15:54;;;;;;;15.93;6.15;;;16.50;99.90;;;;;;5080353;28;20119;-84
2023/07/04 00:18:22;;;;;;;23.55;7.38;;;16.50;99.90;;;;;;5079727;28;20028;-84
2023/07/04 00:20:54;;;;;;;24.45;7.78;;;16.50;99.90;;;;;;5079755;28;20028;-83
2023/07/04 00:23:24;;;;;;;20.65;7.45;;;16.50;99.90;;;;;;5076681;28;20032;-84
2023/07/04 00:25:52;;;;;;;15.70;7.35;;;16.50;99.90;;;;;;5082822;28;20055;-82
2023/07/04 00:28:17;;;;;;;17.08;6.65;;;16.50;99.90;;;;;;5076584;28;20424;-82
2023/07/04 00:30:43;;;;;;;42.17;7.93;;;16.40;99.90;;;;;;5083745;28;20117;-83
2023/07/04 00:33:08;;;;;;;25.40;7.95;;;16.40;99.90;;;;;;5086874;28;20055;-84
2023/07/04 00:35:34;;;;;;;13.18;6.93;;;16.40;99.90;;;;;;5077545;28;20111;-82
2023/07/04 00:37:59;;;;;;;15.25;8.15;;;16.40;99.90;;;;;;5085539;28;20473;-83
2023/07/04 00:40:27;;;;;;;19.60;7.53;;;16.40;99.90;;;;;;5080636;28;20035;-82
2023/07/04 00:43:02;;;;;;;22.25;7.00;;;16.50;99.90;;;;;;5077987;28;20477;-85
2023/07/04 00:45:28;;;;;;;22.55;7.28;;;16.50;99.90;;;;;;5079791;28;20037;-82
2023/07/04 00:48:00;;;;;;;14.70;6.97;;;16.50;99.90;;;;;;5084334;28;20036;-83
2023/07/04 00:50:36;;;;;;;15.77;7.40;;;16.50;99.90;;;;;;5056622;28;20036;-83
2023/07/04 00:53:08;;;;;;;24.55;7.30;;;16.50;99.90;;;;;;5077364;28;20032;-83
2023/07/04 00:55:37;;;;;;;21.65;7.72;;;16.50;99.90;;;;;;5081080;28;20043;-83
2023/07/04 00:58:04;;;;;;;18.20;7.63;;;16.50;99.90;;;;;;5083812;28;20036;-82
2023/07/04 01:00:30;;;;;;;17.25;7.40;;;16.50;99.90;;;;;;5083018;28;20060;-84
2023/07/04 01:03:12;;;;;;;17.27;8.75;;;16.50;99.90;;;;;;5080045;28;20028;-83
2023/07/04 01:06:11;;;;;;;21.60;7.65;;;16.50;99.90;;;;;;5078223;28;20054;-84
2023/07/04 01:08:42;;;;;;;17.70;7.53;;;16.50;99.90;;;;;;5082626;28;20032;-83
2023/07/04 01:11:19;;;;;;;21.50;8.55;;;16.50;99.90;;;;;;5083081;28;20031;-82
2023/07/04 01:13:45;;;;;;;20.65;7.88;;;16.40;99.90;;;;;;5080354;28;20035;-83
2023/07/04 01:16:14;;;;;;;17.45;8.25;;;16.40;99.90;;;;;;5079033;28;20034;-82
2023/07/04 01:18:42;;;;;;;24.38;9.00;;;16.40;99.90;;;;;;5084900;28;20056;-81
2023/07/04 01:21:10;;;;;;;21.25;8.23;;;16.40;99.90;;;;;;5081441;28;20059;-83
2023/07/04 01:23:58;;;;;;;21.60;8.38;;;16.50;99.90;;;;;;5083134;28;20024;-82
2023/07/04 01:26:41;;;;;;;30.30;9.55;;;16.50;99.90;;;;;;5083367;28;20443;-82
2023/07/04 01:29:14;;;;;;;19.52;8.57;;;16.50;99.90;;;;;;5074291;28;20029;-83
2023/07/04 01:31:43;;;;;;;25.10;9.48;;;16.50;99.90;;;;;;5079647;28;20148;-83
2023/07/04 01:34:10;;;;;;;20.83;8.88;;;16.50;99.90;;;;;;5072143;28;20514;-82
2023/07/04 01:36:40;;;;;;;22.20;7.93;;;16.50;99.90;;;;;;5080426;28;20382;-82
2023/07/04 01:39:09;;;;;;;19.60;8.40;;;16.40;99.90;;;;;;5078447;28;20028;-84
2023/07/04 01:41:35;;;;;;;19.73;7.55;;;16.40;99.90;;;;;;5085456;28;20123;-83
2023/07/04 01:44:03;;;;;;;23.42;8.75;;;16.40;99.90;;;;;;5080578;28;20472;-83
2023/07/04 01:46:29;;;;;;;20.88;8.18;;;16.40;99.90;;;;;;5083098;28;20023;-83
2023/07/04 01:48:55;;;;;;;21.40;8.43;;;16.40;99.90;;;;;;5077882;28;20020;-84
2023/07/04 01:51:41;;;;;;;21.77;8.35;;;16.30;99.90;;;;;;5081604;28;20108;-83
2023/07/04 01:54:09;;;;;;;22.80;8.20;;;16.30;99.90;;;;;;5061877;28;20122;-83
2023/07/04 01:56:37;;;;;;;15.52;6.53;;;16.30;99.90;;;;;;5078976;28;20501;-82
2023/07/04 01:59:02;;;;;;;19.65;7.55;;;16.30;99.90;;;;;;5084377;28;20090;-82
2023/07/04 02:01:28;;;;;;;16.85;7.57;;;16.20;99.90;;;;;;5084673;28;20063;-80
2023/07/04 02:03:54;;;;;;;17.80;6.93;;;16.20;99.90;;;;;;5088898;28;20110;-81
2023/07/04 02:06:19;;;;;;;18.20;6.68;;;16.20;99.90;;;;;;5087158;28;20028;-82
2023/07/04 02:08:45;;;;;;;20.88;7.15;;;16.20;99.90;;;;;;5082904;28;20032;-83
2023/07/04 02:11:12;;;;;;;19.73;7.05;;;16.30;99.90;;;;;;5087548;28;20055;-82
2023/07/04 02:13:38;;;;;;;19.83;6.90;;;16.30;99.90;;;;;;5079586;28;20051;-83
2023/07/04 02:16:04;;;;;;;19.17;6.95;;;16.20;99.90;;;;;;5085031;28;20115;-83
2023/07/04 02:18:30;;;;;;;12.80;5.57;;;16.20;99.90;;;;;;5082492;28;20480;-84
2023/07/04 02:20:55;;;;;;;20.40;6.68;;;16.20;99.90;;;;;;5080178;28;20070;-83
2023/07/04 02:23:21;;;;;;;15.40;6.45;;;16.10;99.90;;;;;;5083038;28;20020;-82
2023/07/04 02:25:47;;;;;;;22.52;6.40;;;16.10;99.90;;;;;;5082733;28;20509;-83
2023/07/04 02:28:12;;;;;;;19.77;5.45;;;16.10;99.90;;;;;;5087520;28;20058;-83
2023/07/04 02:30:38;;;;;;;16.90;6.40;;;16.10;99.90;;;;;;5090413;28;20070;-84
2023/07/04 02:33:04;;;;;;;13.00;5.65;;;16.00;99.90;;;;;;5084231;28;20062;-82
2023/07/04 02:35:30;;;;;;;20.88;5.78;;;16.00;99.90;;;;;;5082621;28;20428;-80
2023/07/04 02:37:56;;;;;;;16.77;5.70;;;16.10;99.90;;;;;;5083824;28;20028;-81
2023/07/04 02:40:23;;;;;;;22.83;6.25;;;16.00;99.90;;;;;;5087117;28;20114;-83
2023/07/04 02:42:48;;;;;;;20.83;6.40;;;16.00;99.90;;;;;;5082222;28;20024;-83
2023/07/04 02:45:14;;;;;;;20.58;6.07;;;16.00;99.90;;;;;;5081661;28;21726;-83
2023/07/04 02:47:39;;;;;;;13.85;4.97;;;16.00;99.90;;;;;;5082101;28;20028;-84
2023/07/04 02:50:05;;;;;;;18.17;5.88;;;16.00;99.90;;;;;;5079912;28;20031;-82
2023/07/04 02:52:32;;;;;;;19.48;5.38;;;16.00;99.90;;;;;;5082721;28;20336;-82
2023/07/04 02:54:57;;;;;;;17.60;5.00;;;16.00;99.90;;;;;;5083429;28;20516;-83
2023/07/04 02:57:23;;;;;;;17.95;4.82;;;16.00;99.90;;;;;;5080750;28;20162;-82
2023/07/04 02:59:49;;;;;;;19.65;5.57;;;16.00;99.90;;;;;;5083669;28;20024;-82
2023/07/04 03:02:15;;;;;;;23.98;5.60;;;16.00;99.90;;;;;;5086407;28;20089;-82
2023/07/04 03:04:40;;;;;;;14.38;5.53;;;16.00;99.90;;;;;;5081264;28;20057;-82
2023/07/04 03:07:06;;;;;;;17.05;5.68;;;15.90;99.90;;;;;;5087469;28;20028;-83
2023/07/04 03:09:32;;;;;;;22.50;5.45;;;15.90;99.90;;;;;;5079597;28;20028;-82
2023/07/04 03:11:58;;;;;;;16.02;5.28;;;15.90;99.90;;;;;;5084210;28;20032;-82
2023/07/04 03:14:24;;;;;;;21.45;5.93;;;15.80;99.90;;;;;;5083735;28;20027;-82
2023/07/04 03:16:50;;;;;;;24.77;5.80;;;15.90;99.90;;;;;;5081674;28;20043;-83
2023/07/04 03:19:16;;;;;;;20.58;5.57;;;15.90;99.90;;;;;;5083641;28;20520;-83
2023/07/04 03:21:41;;;;;;;20.45;6.00;;;15.80;99.90;;;;;;5087374;28;20409;-87
2023/07/04 03:24:08;;;;;;;17.83;6.22;;;15.80;99.90;;;;;;5083962;28;20024;-83
2023/07/04 03:26:34;;;;;;;21.05;5.97;;;15.80;99.90;;;;;;5085665;28;20035;-84
2023/07/04 03:29:01;;;;;;;25.35;6.60;;;15.80;99.90;;;;;;5078985;28;20074;-83
2023/07/04 03:31:27;;;;;;;15.07;5.85;;;15.80;99.90;;;;;;5081902;28;20297;-83
2023/07/04 03:33:52;;;;;;;23.23;6.15;;;15.80;99.90;;;;;;5065069;28;20501;-83
2023/07/04 03:36:18;;;;;;;22.02;6.38;;;15.80;99.90;;;;;;5067811;28;20036;-84
2023/07/04 03:38:43;;;;;;;24.98;7.45;;;15.80;99.90;;;;;;5058631;28;20496;-82
2023/07/04 03:41:09;;;;;;;17.65;6.50;;;15.70;99.90;;;;;;5066349;28;20035;-82
2023/07/04 03:43:34;;;;;;;20.20;6.75;;;15.70;99.90;;;;;;5061054;28;20389;-83
2023/07/04 03:46:00;;;;;;;22.25;7.28;;;15.70;99.90;;;;;;5062817;28;20485;-83
2023/07/04 03:48:25;;;;;;;14.40;5.85;;;15.70;99.90;;;;;;5061607;28;20481;-83
2023/07/04 03:50:51;;;;;;;19.75;7.45;;;15.70;99.90;;;;;;5066668;28;20039;-82
2023/07/04 03:53:17;;;;;;;23.42;6.28;;;15.70;99.90;;;;;;5060953;28;20041;-82
2023/07/04 03:55:42;;;;;;;18.35;6.35;;;15.70;99.90;;;;;;5064345;28;20046;-82
2023/07/04 03:58:08;;;;;;;17.40;6.38;;;15.60;99.90;;;;;;5065769;28;20028;-82
2023/07/04 04:00:33;;;;;;;16.25;5.97;;;15.60;99.90;;;;;;5065015;28;20033;-82
2023/07/04 04:02:59;;;;;;;21.70;5.78;;;15.60;99.90;;;;;;5061906;28;20020;-83
2023/07/04 04:05:26;;;;;;;26.30;6.70;;;15.60;99.90;;;;;;5061820;28;20035;-82
2023/07/04 04:07:52;;;;;;;24.25;6.57;;;15.60;99.90;;;;;;5059896;28;20093;-82
2023/07/04 04:10:18;;;;;;;21.20;6.00;;;15.60;99.90;;;;;;5064609;28;20215;-82
2023/07/04 04:12:44;;;;;;;18.40;6.03;;;15.60;99.90;;;;;;5063424;28;20511;-82
2023/07/04 04:15:10;;;;;;;20.50;5.55;;;15.60;99.90;;;;;;5059669;28;20020;-83
2023/07/04 04:17:36;;;;;;;25.60;5.78;;;15.60;99.90;;;;;;5059770;28;20388;-81
2023/07/04 04:20:06;;;;;;;16.38;5.57;;;15.60;99.90;;;;;;5049058;28;20029;-82
2023/07/04 04:22:32;;;;;;;19.42;6.07;;;15.60;99.90;;;;;;5055335;28;20033;-82
2023/07/04 04:24:57;;;;;;;16.48;6.13;;;15.60;99.90;;;;;;5061332;28;20039;-82
2023/07/04 04:27:26;;;;;;;26.67;6.22;;;15.60;99.90;;;;;;5064382;28;20192;-82
2023/07/04 04:29:55;;;;;;;20.90;5.65;;;15.60;99.90;;;;;;5063080;28;20325;-82
2023/07/04 04:32:23;;;;;;;18.85;5.85;;;15.60;99.90;;;;;;5070831;28;20058;-83
2023/07/04 04:34:49;;;;;;;19.63;6.78;;;15.70;99.90;;;;;;5075918;28;20021;-83
2023/07/04 04:37:16;;;;;;;26.50;6.50;;;15.70;99.90;;;;;;5080991;28;20035;-83
2023/07/04 04:39:44;;;;;;;15.93;5.13;;;15.70;99.90;;;;;;5083416;28;20051;-82
2023/07/04 04:42:14;;;;;;;18.95;5.00;;;15.70;99.90;;;;;;5079896;28;20029;-82
2023/07/04 04:45:03;;;;;;;15.75;5.72;;;15.70;99.90;;;;;;5082435;28;20028;-81
2023/07/04 04:47:33;;;;;;;16.33;5.78;;;15.70;99.90;;;;;;5077834;28;20044;-82
2023/07/04 04:50:00;;;;;;;23.58;5.53;;;15.70;99.90;;;;;;5080647;28;20028;-83
2023/07/04 04:52:29;;;;;;;12.18;5.20;;;15.70;99.90;;;;;;5076864;28;20052;-83
2023/07/04 04:54:55;;;;;;;20.55;5.65;;;15.80;99.90;;;;;;5074500;28;20452;-81
2023/07/04 04:57:20;;;;;;;24.13;5.40;;;15.90;99.90;;;;;;5086104;28;20060;-81
2023/07/04 04:59:48;;;;;;;23.77;5.30;;;15.90;99.90;;;;;;5081388;28;20111;-83
2023/07/04 05:02:14;;;;;;;15.35;5.05;;;15.90;99.90;;;;;;5080704;28;20082;-81
2023/07/04 05:04:39;;;;;;;19.65;5.53;;;15.90;99.90;;;;;;5058943;28;20036;-81
2023/07/04 05:07:05;;;;;;;19.27;4.93;;;16.00;99.90;;;;;;5082490;28;20027;-81
2023/07/04 05:09:31;;;;;;;13.85;4.90;;;16.00;99.90;;;;;;5076860;28;20028;-83
2023/07/04 05:11:57;;;;;;;21.27;5.38;;;16.00;99.90;;;;;;5077708;28;20087;-82
2023/07/04 05:14:22;;;;;;;19.83;5.50;;;16.00;99.90;;;;;;5067265;28;20068;-82
2023/07/04 05:16:48;;;;;;;15.07;5.22;;;16.00;99.90;;;;;;5079816;28;20103;-82
2023/07/04 05:19:13;;;;;;;11.00;4.65;;;16.00;99.90;;;;;;5082323;28;20443;-82
2023/07/04 05:21:39;;;;;;;29.52;5.40;;;16.00;99.90;;;;;;5085342;28;20524;-81
2023/07/04 05:24:05;;;;;;;18.08;5.10;;;16.10;99.90;;;;;;5062503;28;20029;-82
2023/07/04 05:26:30;;;;;;;23.13;6.20;;;16.10;99.90;;;;;;5080106;28;20074;-82
2023/07/04 05:28:58;;;;;;;15.13;4.65;;;16.10;99.90;;;;;;5082673;28;20047;-82
2023/07/04 05:31:28;;;;;;;21.13;5.18;;;16.10;99.90;;;;;;5083116;28;20151;-82
2023/07/04 05:33:55;;;;;;;16.02;6.05;;;16.20;99.90;;;;;;5073569;28;20041;-82
2023/07/04 05:36:26;;;;;;;16.63;4.68;;;16.20;99.90;;;;;;5074893;28;20028;-83
2023/07/04 05:38:54;;;;;;;23.85;5.38;;;16.20;99.90;;;;;;5081339;28;20027;-81
2023/07/04 05:41:27;;;;;;;22.73;5.72;;;16.20;99.90;;;;;;5087557;28;20478;-82
2023/07/04 05:44:03;;;;;;;22.27;5.85;;;16.20;99.90;;;;;;5085089;28;20049;-83
2023/07/04 05:46:29;;;;;;;22.65;5.20;;;16.20;99.90;;;;;;5078333;28;20484;-82
2023/07/04 05:48:55;;;;;;;25.20;5.43;;;16.30;99.90;;;;;;5089578;28;20039;-84
2023/07/04 05:51:21;;;;;;;20.98;5.35;;;16.30;99.90;;;;;;5083080;28;20710;-81
2023/07/04 05:53:49;;;;;;;22.05;5.75;;;16.30;99.90;;;;;;5083280;28;20446;-83
2023/07/04 05:56:24;;;;;;;25.58;6.03;;;16.30;99.90;;;;;;5089908;28;20031;-82
2023/07/04 05:58:51;;;;;;;;;;;16.30;99.90;;;;;;5079635;28;20145;-82
2023/07/04 06:01:38;;;;;;;19.63;4.78;;;16.30;99.90;;;;;;5086207;28;19915;-83
2023/07/04 06:04:07;;;;;;;27.25;5.97;;;16.30;99.90;;;;;;5078274;28;20043;-82
2023/07/04 06:06:39;;;;;;;15.70;5.70;;;16.30;99.90;;;;;;5086463;28;20138;-80
2023/07/04 06:09:08;;;;;;;20.35;5.38;;;16.30;99.90;;;;;;5079551;28;20145;-81
2023/07/04 06:11:36;;;;;;;23.63;5.82;;;16.30;99.90;;;;;;5084730;28;20036;-80
2023/07/04 06:14:03;;;;;;;22.52;5.93;;;16.30;99.90;;;;;;5084070;28;20562;-83
2023/07/04 06:16:29;;;;;;;17.60;5.25;;;16.30;99.90;;;;;;5087220;28;20477;-81
2023/07/04 06:18:55;;;;;;;22.75;5.13;;;16.30;99.90;;;;;;5083907;28;20039;-81
2023/07/04 06:21:23;;;;;;;22.17;4.93;;;16.40;99.90;;;;;;5077449;28;20123;-82
2023/07/04 06:23:49;;;;;;;18.48;5.22;;;16.40;99.90;;;;;;5082857;28;20404;-81
2023/07/04 06:26:15;;;;;;;14.98;4.90;;;16.40;99.90;;;;;;5084497;28;20477;-81
2023/07/04 06:28:42;;;;;;;16.85;4.32;;;16.50;99.90;;;;;;5069223;28;20032;-83
2023/07/04 06:31:13;;;;;;;22.23;5.60;;;16.50;99.90;;;;;;5082042;28;20024;-81
2023/07/04 06:33:39;;;;;;;16.08;4.47;;;16.50;99.90;;;;;;5087971;28;20038;-83
2023/07/04 06:36:08;;;;;;;18.92;5.10;;;16.50;99.90;;;;;;5082634;28;20528;-85
2023/07/04 06:38:33;;;;;;;18.48;5.20;;;16.60;99.90;;;;;;5078268;28;20601;-82
2023/07/04 06:41:22;;;;;;;24.17;5.22;;;16.60;99.90;;;;;;5079961;28;20111;-80
2023/07/04 06:43:48;;;;;;;23.90;4.88;;;16.60;99.90;;;;;;5083734;28;20120;-82
2023/07/04 06:46:18;;;;;;;16.73;4.43;;;16.70;99.90;;;;;;5088434;28;20544;-82
2023/07/04 06:48:46;;;;;;;24.77;6.80;;;16.70;99.90;;;;;;5087670;28;20528;-81
2023/07/04 06:51:12;;;;;;;16.05;4.45;;;16.60;99.90;;;;;;5083164;28;20031;-82
2023/07/04 06:53:39;;;;;;;25.75;4.45;;;16.70;99.90;;;;;;5063562;28;20044;-82
2023/07/04 06:56:19;;;;;;;16.50;4.47;;;16.70;99.90;;;;;;5087671;28;20089;-81
2023/07/04 06:58:53;;;;;;;13.60;4.70;;;16.70;99.90;;;;;;5087943;28;20365;-82
2023/07/04 07:01:22;;;;;;;19.10;5.18;;;16.70;99.90;;;;;;5080917;28;20042;-82
2023/07/04 07:03:49;;;;;;;16.75;3.83;;;16.80;99.90;;;;;;5077082;28;20035;-82
2023/07/04 07:06:15;;;;;;;22.30;4.85;;;16.80;99.90;;;;;;5083633;28;20062;-81
2023/07/04 07:08:41;;;;;;;15.10;4.55;;;16.90;99.90;;;;;;5081374;28;20430;-81
2023/07/04 07:11:11;;;;;;;17.00;4.43;;;16.90;99.90;;;;;;5079351;28;20017;-80
2023/07/04 07:13:39;;;;;;;21.10;5.65;;;16.90;99.90;;;;;;5079465;28;20041;-87
2023/07/04 07:16:22;;;;;;;9.75;4.10;;;16.90;99.90;;;;;;5078541;28;20032;-82
2023/07/04 07:18:49;;;;;;;15.55;4.38;;;16.90;99.90;;;;;;5083596;28;20103;-82
2023/07/04 07:21:20;;;;;;;26.58;5.20;;;17.00;99.90;;;;;;5081901;28;20012;-83
2023/07/04 07:23:46;;;;;;;14.00;4.10;;;17.00;99.90;;;;;;5082944;28;20028;-81
2023/07/04 07:26:16;;;;;;;13.40;3.67;;;17.00;99.90;;;;;;5088744;28;20024;-82
2023/07/04 07:28:43;;;;;;;18.30;4.28;;;17.10;99.90;;;;;;5087456;28;20028;-83
2023/07/04 07:31:16;;;;;;;15.40;3.97;;;17.10;99.90;;;;;;5083240;28;20103;-82
2023/07/04 07:33:45;;;;;;;21.13;5.32;;;17.10;99.90;;;;;;5077448;28;20100;-80
2023/07/04 07:36:18;;;;;;;16.33;4.30;;;17.20;99.90;;;;;;5076145;28;20074;-82
2023/07/04 07:38:44;;;;;;;17.67;3.85;;;17.20;99.90;;;;;;5080909;28;20040;-80
2023/07/04 07:41:10;;;;;;;20.55;4.18;;;17.30;99.90;;;;;;5076767;28;20393;-79
2023/07/04 07:43:38;;;;;;;23.10;5.43;;;17.30;99.90;;;;;;5082308;28;20020;-80
2023/07/04 07:46:08;;;;;;;16.23;4.80;;;17.30;99.90;;;;;;5074549;28;20469;-81
2023/07/04 07:48:34;;;;;;;17.67;4.72;;;17.40;99.90;;;;;;5074700;28;20028;-82
2023/07/04 07:50:59;;;;;;;17.83;4.22;;;17.30;99.90;;;;;;5085713;28;20614;-82
2023/07/04 07:53:25;;;;;;;19.95;4.25;;;17.40;99.90;;;;;;5082036;28;20462;-81
2023/07/04 07:55:50;;;;;;;10.30;3.50;;;17.40;99.90;;;;;;5073466;28;20024;-82
2023/07/04 07:58:16;;;;;;;19.25;5.22;;;17.50;99.90;;;;;;5077061;28;20020;-81
2023/07/04 08:00:41;;;;;;;11.65;3.40;;;17.50;99.90;;;;;;5082967;28;20399;-80
2023/07/04 08:03:07;;;;;;;9.23;3.50;;;17.60;99.90;;;;;;5081299;28;20032;-84
2023/07/04 08:05:38;;;;;;;12.35;3.28;;;17.70;99.90;;;;;;5082454;28;20032;-84
2023/07/04 08:08:04;;;;;;;15.25;3.58;;;17.70;99.90;;;;;;5076527;28;20127;-82
2023/07/04 08:10:35;;;;;;;16.98;3.78;;;17.60;99.90;;;;;;5078640;28;20143;-82
2023/07/04 08:13:01;;;;;;;9.02;3.85;;;17.60;99.90;;;;;;5077105;28;20039;-82
2023/07/04 08:15:29;;;;;;;13.82;3.97;;;17.60;99.90;;;;;;5076845;28;20032;-82
2023/07/04 08:17:55;;;;;;;15.68;4.03;;;17.70;99.90;;;;;;5078868;28;20059;-82
2023/07/04 08:20:21;;;;;;;9.98;2.97;;;17.60;99.90;;;;;;5083225;28;20039;-85
2023/07/04 08:22:47;;;;;;;15.07;4.25;;;17.60;99.90;;;;;;5072217;28;20028;-82
2023/07/04 08:25:13;;;;;;;19.88;4.20;;;17.70;99.90;;;;;;5080942;28;20043;-85
2023/07/04 08:27:38;;;;;;;19.67;3.85;;;17.80;99.90;;;;;;5078154;28;20024;-83
2023/07/04 08:30:04;;;;;;;12.48;3.30;;;17.80;99.90;;;;;;5078522;28;20132;-81
2023/07/04 08:32:30;;;;;;;14.77;3.88;;;17.90;99.90;;;;;;5079142;28;20074;-87
2023/07/04 08:34:56;;;;;;;26.48;4.07;;;18.00;99.90;;;;;;5078652;28;20031;-82
2023/07/04 08:37:21;;;;;;;12.95;3.92;;;18.00;99.90;;;;;;5077346;28;20422;-82
2023/07/04 08:39:49;;;;;;;9.27;3.78;;;18.10;99.90;;;;;;5077635;28;20424;-84
2023/07/04 08:42:16;;;;;;;15.82;3.72;;;18.10;99.90;;;;;;5083132;28;20097;-81
2023/07/04 08:44:45;;;;;;;14.20;3.65;;;18.10;99.90;;;;;;5083928;28;20442;-83
2023/07/04 08:47:14;;;;;;;18.58;4.25;;;18.00;99.90;;;;;;5079828;28;20226;-83
2023/07/04 08:50:03;;;;;;;17.83;4.30;;;18.00;99.90;;;;;;5080524;28;20052;-81
2023/07/04 08:52:54;;;;;;;15.15;3.53;;;18.10;99.90;;;;;;5078005;28;20067;-81
2023/07/04 08:55:20;;;;;;;16.85;3.58;;;18.10;99.90;;;;;;5084287;28;20111;-83
2023/07/04 08:57:58;;;;;;;14.65;3.47;;;18.10;99.90;;;;;;5080437;28;20540;-82
2023/07/04 09:00:36;;;;;;;11.85;3.45;;;18.10;99.90;;;;;;5084149;28;20392;-81
2023/07/04 09:03:16;;;;;;;13.13;3.42;;;18.20;99.90;;;;;;5065648;28;20435;-82
2023/07/04 09:05:56;;;;;;;21.77;3.53;;;18.40;99.90;;;;;;5075495;28;20397;-83
2023/07/04 09:08:49;;;;;;;17.80;3.80;;;18.40;99.90;;;;;;5077978;28;20512;-82
2023/07/04 09:11:16;;;;;;;13.77;3.55;;;18.40;99.90;;;;;;5076533;28;20540;-82
2023/07/04 09:13:46;;;;;;;12.43;3.60;;;18.40;99.90;;;;;;5080811;28;20576;-81
2023/07/04 09:16:26;;;;;;;11.98;3.58;;;18.40;99.90;;;;;;5079320;28;20019;-79
2023/07/04 09:19:02;;;;;;;13.40;3.35;;;18.50;99.90;;;;;;5077476;28;20123;-80
2023/07/04 09:21:30;;;;;;;9.90;2.70;;;18.60;99.90;;;;;;5074849;28;20024;-80
2023/07/04 09:24:01;;;;;;;11.85;3.40;;;18.60;99.90;;;;;;5071699;28;20103;-79
2023/07/04 09:26:52;;;;;;;18.15;3.45;;;18.70;99.90;;;;;;5070570;28;20044;-84
2023/07/04 09:29:24;;;;;;;16.02;3.50;;;18.80;99.90;;;;;;5076707;28;20024;-80
2023/07/04 09:31:55;;;;;;;11.00;2.75;;;18.80;99.90;;;;;;5079289;28;20056;-83
2023/07/04 09:34:26;;;;;;;16.98;3.78;;;18.90;99.90;;;;;;5080148;28;20071;-83
2023/07/04 09:36:54;;;;;;;10.77;3.33;;;18.90;99.90;;;;;;5074602;28;20619;-81
2023/07/04 09:39:19;;;;;;;20.98;4.45;;;18.90;99.90;;;;;;5080784;28;20028;-81
2023/07/04 09:41:56;;;;;;;13.52;3.55;;;18.90;99.90;;;;;;5076051;28;20032;-81
2023/07/04 09:44:32;;;;;;;15.13;3.75;;;18.90;99.90;;;;;;5083390;28;20484;-83
2023/07/04 09:47:01;;;;;;;18.00;3.53;;;18.80;99.90;;;;;;5074119;28;20433;-79
2023/07/04 09:49:35;;;;;;;13.90;3.47;;;18.90;99.90;;;;;;5069590;28;20032;-82
2023/07/04 09:52:17;;;;;;;11.57;3.00;;;18.90;99.90;;;;;;5077317;28;20610;-81
2023/07/04 09:54:43;;;;;;;16.45;3.60;;;19.00;99.90;;;;;;5052515;28;20603;-81
2023/07/04 09:57:16;;;;;;;10.80;3.38;;;19.30;99.90;;;;;;5071764;28;20035;-82
2023/07/04 09:59:42;;;;;;;9.05;3.20;;;19.30;99.90;;;;;;5076057;28;20044;-80
2023/07/04 10:02:17;;;;;;;14.95;3.58;;;19.20;99.90;;;;;;5071134;28;20520;-80
2023/07/04 10:04:45;;;;;;;21.03;4.37;;;19.30;99.90;;;;;;5083238;28;20035;-80
2023/07/04 10:07:16;;;;;;;7.75;3.00;;;19.30;99.90;;;;;;5085453;28;20138;-82
2023/07/04 10:09:54;;;;;;;21.02;4.43;;;19.30;99.90;;;;;;5083625;28;20035;-83
2023/07/04 10:12:20;;;;;;;10.43;2.92;;;19.30;99.90;;;;;;5075773;28;20036;-82
2023/07/04 10:14:53;;;;;;;7.72;3.50;;;19.40;99.90;;;;;;5083311;28;20024;-82
2023/07/04 10:17:30;;;;;;;11.40;3.80;;;19.40;99.90;;;;;;5076736;28;20073;-83
2023/07/04 10:20:00;;;;;;;15.68;3.42;;;19.60;99.90;;;;;;5070612;28;20029;-79
2023/07/04 10:22:45;;;;;;;10.52;3.45;;;19.70;99.90;;;;;;5071816;28;20036;-81
2023/07/04 10:25:14;;;;;;;14.25;3.90;;;19.80;99.90;;;;;;5079535;28;20140;-81
2023/07/04 10:27:42;;;;;;;12.45;3.20;;;19.80;99.90;;;;;;5089000;28;20032;-81
2023/07/04 10:30:16;;;;;;;19.40;4.18;;;19.70;99.90;;;;;;5085482;28;20025;-81
2023/07/04 10:32:46;;;;;;;12.38;3.55;;;19.70;99.90;;;;;;5082593;28;20401;-82
2023/07/04 10:35:19;;;;;;;9.30;3.83;;;19.70;99.90;;;;;;5082627;28;20025;-81
2023/07/04 10:37:56;;;;;;;7.13;3.20;;;19.70;99.90;;;;;;5082957;28;20051;-82
2023/07/04 10:40:23;;;;;;;12.43;3.70;;;19.60;99.90;;;;;;5082435;28;20043;-81
2023/07/04 10:43:10;;;;;;;8.32;3.47;;;19.60;99.90;;;;;;5082991;28;20260;-81
2023/07/04 10:45:40;;;;;;;10.30;3.60;;;19.50;99.90;;;;;;5084929;28;20073;-81
2023/07/04 10:48:12;;;;;;;13.27;3.67;;;19.40;99.90;;;;;;5081895;28;20487;-82
2023/07/04 10:50:55;;;;;;;12.55;3.60;;;19.30;99.90;;;;;;5083194;28;20110;-82
2023/07/04 10:53:21;;;;;;;17.02;4.93;;;19.20;99.90;;;;;;5080588;28;20086;-82
2023/07/04 10:55:54;;;;;;;15.95;5.13;;;19.40;99.90;;;;;;5080079;28;20035;-81
2023/07/04 10:58:22;;;;;;;18.88;5.57;;;19.50;99.90;;;;;;5083338;28;20429;-82
2023/07/04 11:01:09;;;;;;;16.83;5.25;;;19.70;99.90;;;;;;5078363;28;20111;-82
2023/07/04 11:03:49;;;;;;;17.15;4.93;;;19.80;99.90;;;;;;5083563;28;20024;-82
2023/07/04 11:06:29;;;;;;;13.23;4.70;;;19.80;99.90;;;;;;5082446;28;20558;-80
2023/07/04 11:08:56;;;;;;;9.48;4.22;;;20.00;99.90;;;;;;5084553;28;20048;-82
2023/07/04 11:11:29;;;;;;;10.98;4.53;;;20.10;99.90;;;;;;5081039;28;20028;-85
2023/07/04 11:14:00;;;;;;;9.18;4.63;;;20.20;99.90;;;;;;5060258;28;20036;-83
2023/07/04 11:16:29;;;;;;;11.65;4.90;;;20.40;99.90;;;;;;5077151;28;20032;-82
2023/07/04 11:19:07;;;;;;;18.13;5.72;;;20.50;99.90;;;;;;5083668;28;20032;-83
2023/07/04 11:21:33;;;;;;;14.18;5.13;;;20.60;99.90;;;;;;5086331;28;20028;-80
2023/07/04 11:24:18;;;;;;;15.38;5.03;;;20.60;99.90;;;;;;5078372;28;20031;-82
2023/07/04 11:26:59;;;;;;;9.77;4.60;;;20.60;99.90;;;;;;5088708;28;20097;-83
2023/07/04 11:29:25;;;;;;;16.33;5.38;;;20.70;99.90;;;;;;5078084;28;20286;-82
2023/07/04 11:32:09;;;;;;;14.52;5.13;;;20.80;99.90;;;;;;5084502;28;20044;-81
2023/07/04 11:34:46;;;;;;;12.90;5.57;;;20.80;99.90;;;;;;5081755;28;20036;-85
2023/07/04 11:37:38;;;;;;;13.05;6.32;;;20.90;99.90;;;;;;5082055;28;20027;-84
2023/07/04 11:40:18;;;;;;;17.95;6.32;;;20.90;99.90;;;;;;5079456;28;20331;-82
2023/07/04 11:42:50;;;;;;;14.07;4.97;;;20.90;99.90;;;;;;5079711;28;20050;-81
2023/07/04 11:45:18;;;;;;;13.02;5.30;;;21.00;99.90;;;;;;5088561;28;20124;-83
2023/07/04 11:47:51;;;;;;;14.93;5.45;;;21.00;98.60;;;;;;5079750;28;20348;-82
2023/07/04 11:50:19;;;;;;;11.57;5.32;;;20.90;99.90;;;;;;5082314;28;20505;-82
2023/07/04 11:52:54;;;;;;;12.50;5.32;;;20.80;99.90;;;;;;5082779;28;20048;-83
2023/07/04 11:55:26;;;;;;;15.60;5.20;;;20.80;99.90;;;;;;5087121;28;20032;-83
2023/07/04 11:57:59;;;;;;;17.75;5.38;;;20.80;99.90;;;;;;5083370;28;20084;-82
2023/07/04 12:00:37;;;;;;;15.20;5.63;;;20.80;99.90;;;;;;5078438;28;20020;-82
2023/07/04 12:03:18;;;;;;;16.60;4.97;;;21.00;99.90;;;;;;5084386;28;20028;-86
2023/07/04 12:05:50;;;;;;;12.52;4.97;;;21.10;99.90;;;;;;5086538;28;20016;-82
2023/07/04 12:08:31;;;;;;;14.00;6.40;;;21.30;99.90;;;;;;5081372;28;20074;-81
2023/07/04 12:11:04;;;;;;;19.92;6.72;;;21.40;99.90;;;;;;5071532;28;20074;-83
2023/07/04 12:13:34;;;;;;;15.70;4.82;;;21.50;99.90;;;;;;5079814;28;20059;-84
2023/07/04 12:16:00;;;;;;;10.93;5.00;;;21.50;99.90;;;;;;5076312;28;20028;-81
2023/07/04 12:18:28;;;;;;;17.15;6.03;;;21.50;99.90;;;;;;5082534;28;20032;-84
2023/07/04 12:20:56;;;;;;;10.38;4.78;;;21.50;98.30;;;;;;5075293;28;20032;-81
2023/07/04 12:23:23;;;;;;;18.98;6.07;;;21.50;96.40;;;;;;5073387;28;20401;-81
2023/07/04 12:25:51;;;;;;;10.82;5.43;;;21.40;94.40;;;;;;5082995;28;20059;-83
2023/07/04 12:28:21;;;;;;;13.60;5.55;;;21.30;96.60;;;;;;5058902;28;20119;-83
2023/07/04 12:30:59;;;;;;;24.23;6.43;;;21.30;93.40;;;;;;5084110;28;20025;-81
2023/07/04 12:33:44;;;;;;;13.85;5.45;;;21.30;97.40;;;;;;5078421;28;20044;-81
2023/07/04 12:36:15;;;;;;;12.77;6.10;;;21.20;95.10;;;;;;5080077;28;20492;-82
2023/07/04 12:38:42;;;;;;;12.05;5.03;;;21.20;98.70;;;;;;5082315;28;20480;-83
2023/07/04 12:41:08;;;;;;;13.57;5.78;;;21.20;96.90;;;;;;5075251;28;20054;-89
2023/07/04 12:43:33;;;;;;;14.82;4.78;;;21.30;98.40;;;;;;5080734;28;20028;-84
2023/07/04 12:46:13;;;;;;;11.98;5.40;;;21.30;95.50;;;;;;5084471;28;20020;-82
2023/07/04 12:48:40;;;;;;;16.60;6.25;;;21.30;99.10;;;;;;5077943;28;20028;-82
2023/07/04 12:51:10;;;;;;;13.30;6.32;;;21.30;99.90;;;;;;5081905;28;20488;-83